sensor_id;sensor_type;location;lat;lon;timestamp;P1;durP1;ratioP1;P2;durP2;ratioP2
68942;SDS011;60852;52.190;4.422;2023-05-10T00:01:54;14.29;;;14.29;;
68942;SDS011;60852;52.190;4.422;2023-05-10T00:04:20;13.96;;;13.96;;
68942;SDS011;60852;52.190;4.422;2023-05-10T00:06:46;13.66;;;13.66;;
68942;SDS011;60852;52.190;4.422;2023-05-10T00:09:12;13.79;;;13.79;;
68942;SDS011;60852;52.190;4.422;2023-05-10T00:11:37;14.20;;;14.20;;
68942;SDS011;60852;52.190;4.422;2023-05-10T00:14:03;14.66;;;14.66;;
68942;SDS011;60852;52.190;4.422;2023-05-10T00:16:28;14.40;;;14.40;;
68942;SDS011;60852;52.190;4.422;2023-05-10T00:18:54;14.96;;;14.96;;
68942;SDS011;60852;52.190;4.422;2023-05-10T00:21:19;15.45;;;15.45;;
68942;SDS011;60852;52.190;4.422;2023-05-10T00:23:45;16.79;;;16.79;;
68942;SDS011;60852;52.190;4.422;2023-05-10T00:26:10;17.04;;;17.04;;
68942;SDS011;60852;52.190;4.422;2023-05-10T00:28:36;17.97;;;17.97;;
68942;SDS011;60852;52.190;4.422;2023-05-10T00:31:01;17.63;;;17.59;;
68942;SDS011;60852;52.190;4.422;2023-05-10T00:33:27;18.45;;;18.45;;
68942;SDS011;60852;52.190;4.422;2023-05-10T00:35:53;19.79;;;19.79;;
68942;SDS011;60852;52.190;4.422;2023-05-10T00:38:18;19.49;;;19.49;;
68942;SDS011;60852;52.190;4.422;2023-05-10T00:40:43;18.85;;;18.85;;
68942;SDS011;60852;52.190;4.422;2023-05-10T00:43:09;19.28;;;19.28;;
68942;SDS011;60852;52.190;4.422;2023-05-10T00:45:34;19.55;;;19.55;;
68942;SDS011;60852;52.190;4.422;2023-05-10T00:48:01;20.38;;;20.36;;
68942;SDS011;60852;52.190;4.422;2023-05-10T00:50:28;20.05;;;20.05;;
68942;SDS011;60852;52.190;4.422;2023-05-10T00:52:56;20.19;;;20.19;;
68942;SDS011;60852;52.190;4.422;2023-05-10T00:55:24;20.20;;;20.20;;
68942;SDS011;60852;52.190;4.422;2023-05-10T00:57:49;21.52;;;21.52;;
68942;SDS011;60852;52.190;4.422;2023-05-10T01:00:15;21.32;;;21.32;;
68942;SDS011;60852;52.190;4.422;2023-05-10T01:02:44;19.47;;;19.47;;
68942;SDS011;60852;52.190;4.422;2023-05-10T01:05:11;17.99;;;17.99;;
68942;SDS011;60852;52.190;4.422;2023-05-10T01:07:37;18.16;;;18.16;;
68942;SDS011;60852;52.190;4.422;2023-05-10T01:10:03;19.33;;;19.33;;
68942;SDS011;60852;52.190;4.422;2023-05-10T01:12:30;20.09;;;20.09;;
68942;SDS011;60852;52.190;4.422;2023-05-10T01:14:55;19.44;;;19.42;;
68942;SDS011;60852;52.190;4.422;2023-05-10T01:17:24;18.89;;;18.82;;
68942;SDS011;60852;52.190;4.422;2023-05-10T01:19:50;19.27;;;19.26;;
68942;SDS011;60852;52.190;4.422;2023-05-10T01:25:19;23.67;;;23.23;;
68942;SDS011;60852;52.190;4.422;2023-05-10T01:28:33;25.27;;;24.99;;
68942;SDS011;60852;52.190;4.422;2023-05-10T01:31:30;26.62;;;25.61;;
68942;SDS011;60852;52.190;4.422;2023-05-10T01:34:26;26.60;;;25.58;;
68942;SDS011;60852;52.190;4.422;2023-05-10T01:36:58;25.11;;;24.24;;
68942;SDS011;60852;52.190;4.422;2023-05-10T01:39:44;23.58;;;22.70;;
68942;SDS011;60852;52.190;4.422;2023-05-10T01:42:14;24.43;;;23.68;;
68942;SDS011;60852;52.190;4.422;2023-05-10T01:45:02;24.76;;;24.00;;
68942;SDS011;60852;52.190;4.422;2023-05-10T01:50:36;24.68;;;23.72;;
68942;SDS011;60852;52.190;4.422;2023-05-10T01:53:08;24.75;;;23.93;;
68942;SDS011;60852;52.190;4.422;2023-05-10T01:55:41;24.39;;;23.44;;
68942;SDS011;60852;52.190;4.422;2023-05-10T01:58:32;22.99;;;22.59;;
68942;SDS011;60852;52.190;4.422;2023-05-10T02:00:59;25.13;;;24.28;;
68942;SDS011;60852;52.190;4.422;2023-05-10T02:03:28;25.02;;;23.93;;
68942;SDS011;60852;52.190;4.422;2023-05-10T02:05:57;23.12;;;22.59;;
68942;SDS011;60852;52.190;4.422;2023-05-10T02:08:23;24.24;;;23.48;;
68942;SDS011;60852;52.190;4.422;2023-05-10T02:10:51;24.28;;;23.42;;
68942;SDS011;60852;52.190;4.422;2023-05-10T02:13:20;22.42;;;22.11;;
68942;SDS011;60852;52.190;4.422;2023-05-10T02:15:49;21.35;;;21.27;;
68942;SDS011;60852;52.190;4.422;2023-05-10T02:18:17;17.90;;;17.76;;
68942;SDS011;60852;52.190;4.422;2023-05-10T02:20:44;16.90;;;16.82;;
68942;SDS011;60852;52.190;4.422;2023-05-10T02:23:11;17.25;;;17.25;;
68942;SDS011;60852;52.190;4.422;2023-05-10T02:25:39;18.97;;;18.97;;
68942;SDS011;60852;52.190;4.422;2023-05-10T02:28:06;18.88;;;18.88;;
68942;SDS011;60852;52.190;4.422;2023-05-10T02:30:33;18.05;;;18.05;;
68942;SDS011;60852;52.190;4.422;2023-05-10T02:33:01;18.40;;;18.40;;
68942;SDS011;60852;52.190;4.422;2023-05-10T02:35:29;18.63;;;18.63;;
68942;SDS011;60852;52.190;4.422;2023-05-10T02:37:58;17.76;;;17.61;;
68942;SDS011;60852;52.190;4.422;2023-05-10T02:40:25;17.74;;;17.71;;
68942;SDS011;60852;52.190;4.422;2023-05-10T02:42:52;16.93;;;16.93;;
68942;SDS011;60852;52.190;4.422;2023-05-10T02:45:21;18.08;;;18.08;;
68942;SDS011;60852;52.190;4.422;2023-05-10T02:47:53;20.67;;;20.67;;
68942;SDS011;60852;52.190;4.422;2023-05-10T02:50:19;21.42;;;21.18;;
68942;SDS011;60852;52.190;4.422;2023-05-10T02:52:49;21.63;;;21.51;;
68942;SDS011;60852;52.190;4.422;2023-05-10T02:55:19;20.41;;;20.37;;
68942;SDS011;60852;52.190;4.422;2023-05-10T02:57:51;21.01;;;20.87;;
68942;SDS011;60852;52.190;4.422;2023-05-10T03:00:24;20.31;;;20.29;;
68942;SDS011;60852;52.190;4.422;2023-05-10T03:02:50;19.78;;;19.78;;
68942;SDS011;60852;52.190;4.422;2023-05-10T03:05:15;19.96;;;19.96;;
68942;SDS011;60852;52.190;4.422;2023-05-10T03:07:41;22.17;;;22.00;;
68942;SDS011;60852;52.190;4.422;2023-05-10T03:10:07;21.90;;;21.32;;
68942;SDS011;60852;52.190;4.422;2023-05-10T03:18:18;22.54;;;22.09;;
68942;SDS011;60852;52.190;4.422;2023-05-10T03:20:48;24.12;;;23.63;;
68942;SDS011;60852;52.190;4.422;2023-05-10T03:25:51;22.77;;;22.37;;
68942;SDS011;60852;52.190;4.422;2023-05-10T03:28:17;24.82;;;24.19;;
68942;SDS011;60852;52.190;4.422;2023-05-10T03:30:45;22.34;;;21.88;;
68942;SDS011;60852;52.190;4.422;2023-05-10T03:33:11;17.00;;;16.77;;
68942;SDS011;60852;52.190;4.422;2023-05-10T03:35:38;15.80;;;15.46;;
68942;SDS011;60852;52.190;4.422;2023-05-10T03:38:03;14.90;;;14.63;;
68942;SDS011;60852;52.190;4.422;2023-05-10T03:40:29;15.27;;;15.06;;
68942;SDS011;60852;52.190;4.422;2023-05-10T03:42:56;16.85;;;16.61;;
68942;SDS011;60852;52.190;4.422;2023-05-10T03:45:25;17.46;;;17.10;;
68942;SDS011;60852;52.190;4.422;2023-05-10T03:47:50;18.61;;;18.12;;
68942;SDS011;60852;52.190;4.422;2023-05-10T03:50:16;18.31;;;18.04;;
68942;SDS011;60852;52.190;4.422;2023-05-10T03:52:42;16.82;;;16.75;;
68942;SDS011;60852;52.190;4.422;2023-05-10T03:55:07;15.19;;;15.00;;
68942;SDS011;60852;52.190;4.422;2023-05-10T03:57:33;14.90;;;14.63;;
68942;SDS011;60852;52.190;4.422;2023-05-10T03:59:59;14.43;;;14.03;;
68942;SDS011;60852;52.190;4.422;2023-05-10T04:02:25;13.57;;;13.31;;
68942;SDS011;60852;52.190;4.422;2023-05-10T04:04:50;13.55;;;13.20;;
68942;SDS011;60852;52.190;4.422;2023-05-10T04:07:16;12.65;;;12.22;;
68942;SDS011;60852;52.190;4.422;2023-05-10T04:09:41;12.83;;;12.47;;
68942;SDS011;60852;52.190;4.422;2023-05-10T04:12:07;12.84;;;12.31;;
68942;SDS011;60852;52.190;4.422;2023-05-10T04:14:32;12.42;;;11.96;;
68942;SDS011;60852;52.190;4.422;2023-05-10T04:16:58;12.03;;;11.77;;
68942;SDS011;60852;52.190;4.422;2023-05-10T04:19:23;12.24;;;11.82;;
68942;SDS011;60852;52.190;4.422;2023-05-10T04:21:49;13.09;;;12.60;;
68942;SDS011;60852;52.190;4.422;2023-05-10T04:24:14;13.64;;;13.16;;
68942;SDS011;60852;52.190;4.422;2023-05-10T04:26:40;12.66;;;12.27;;
68942;SDS011;60852;52.190;4.422;2023-05-10T04:29:05;13.41;;;13.01;;
68942;SDS011;60852;52.190;4.422;2023-05-10T04:31:31;13.18;;;12.85;;
68942;SDS011;60852;52.190;4.422;2023-05-10T04:33:57;13.44;;;13.01;;
68942;SDS011;60852;52.190;4.422;2023-05-10T04:36:23;13.15;;;12.75;;
68942;SDS011;60852;52.190;4.422;2023-05-10T04:38:48;13.10;;;12.71;;
68942;SDS011;60852;52.190;4.422;2023-05-10T04:41:13;12.84;;;12.30;;
68942;SDS011;60852;52.190;4.422;2023-05-10T04:43:39;12.67;;;12.18;;
68942;SDS011;60852;52.190;4.422;2023-05-10T04:46:06;12.66;;;12.36;;
68942;SDS011;60852;52.190;4.422;2023-05-10T04:48:34;12.14;;;11.73;;
68942;SDS011;60852;52.190;4.422;2023-05-10T04:51:00;12.49;;;12.10;;
68942;SDS011;60852;52.190;4.422;2023-05-10T04:53:25;12.32;;;11.86;;
68942;SDS011;60852;52.190;4.422;2023-05-10T04:55:51;12.50;;;11.96;;
68942;SDS011;60852;52.190;4.422;2023-05-10T04:58:16;12.62;;;12.20;;
68942;SDS011;60852;52.190;4.422;2023-05-10T05:00:42;12.96;;;12.72;;
68942;SDS011;60852;52.190;4.422;2023-05-10T05:03:07;12.85;;;12.47;;
68942;SDS011;60852;52.190;4.422;2023-05-10T05:05:33;12.50;;;12.28;;
68942;SDS011;60852;52.190;4.422;2023-05-10T05:07:58;11.78;;;11.54;;
68942;SDS011;60852;52.190;4.422;2023-05-10T05:10:24;11.72;;;11.45;;
68942;SDS011;60852;52.190;4.422;2023-05-10T05:12:49;11.80;;;11.63;;
68942;SDS011;60852;52.190;4.422;2023-05-10T05:15:15;13.45;;;12.99;;
68942;SDS011;60852;52.190;4.422;2023-05-10T05:17:41;12.40;;;12.16;;
68942;SDS011;60852;52.190;4.422;2023-05-10T05:20:07;13.86;;;13.63;;
68942;SDS011;60852;52.190;4.422;2023-05-10T05:22:33;12.12;;;11.87;;
68942;SDS011;60852;52.190;4.422;2023-05-10T05:24:59;9.49;;;9.29;;
68942;SDS011;60852;52.190;4.422;2023-05-10T05:27:24;8.03;;;7.87;;
68942;SDS011;60852;52.190;4.422;2023-05-10T05:29:54;8.25;;;8.20;;
68942;SDS011;60852;52.190;4.422;2023-05-10T05:32:21;6.49;;;6.49;;
68942;SDS011;60852;52.190;4.422;2023-05-10T05:34:47;5.94;;;5.94;;
68942;SDS011;60852;52.190;4.422;2023-05-10T05:37:15;6.23;;;6.23;;
68942;SDS011;60852;52.190;4.422;2023-05-10T05:39:42;5.11;;;5.11;;
68942;SDS011;60852;52.190;4.422;2023-05-10T05:42:08;5.75;;;5.75;;
68942;SDS011;60852;52.190;4.422;2023-05-10T05:44:34;8.28;;;8.28;;
68942;SDS011;60852;52.190;4.422;2023-05-10T05:47:00;9.44;;;9.44;;
68942;SDS011;60852;52.190;4.422;2023-05-10T05:49:25;4.29;;;4.29;;
68942;SDS011;60852;52.190;4.422;2023-05-10T05:51:51;3.17;;;3.17;;
68942;SDS011;60852;52.190;4.422;2023-05-10T05:54:17;4.37;;;4.37;;
68942;SDS011;60852;52.190;4.422;2023-05-10T05:56:42;5.34;;;5.34;;
68942;SDS011;60852;52.190;4.422;2023-05-10T05:59:09;4.47;;;4.47;;
68942;SDS011;60852;52.190;4.422;2023-05-10T06:01:35;4.31;;;4.31;;
68942;SDS011;60852;52.190;4.422;2023-05-10T06:04:01;3.50;;;3.50;;
68942;SDS011;60852;52.190;4.422;2023-05-10T06:06:26;2.98;;;2.98;;
68942;SDS011;60852;52.190;4.422;2023-05-10T06:08:52;2.77;;;2.77;;
68942;SDS011;60852;52.190;4.422;2023-05-10T06:11:18;2.60;;;2.60;;
68942;SDS011;60852;52.190;4.422;2023-05-10T06:13:43;3.23;;;3.23;;
68942;SDS011;60852;52.190;4.422;2023-05-10T06:16:09;2.99;;;2.99;;
68942;SDS011;60852;52.190;4.422;2023-05-10T06:18:35;3.01;;;3.01;;
68942;SDS011;60852;52.190;4.422;2023-05-10T06:21:01;3.04;;;3.04;;
68942;SDS011;60852;52.190;4.422;2023-05-10T06:23:26;3.84;;;3.84;;
68942;SDS011;60852;52.190;4.422;2023-05-10T06:25:52;4.21;;;4.21;;
68942;SDS011;60852;52.190;4.422;2023-05-10T06:28:17;4.98;;;4.98;;
68942;SDS011;60852;52.190;4.422;2023-05-10T06:30:43;5.69;;;5.69;;
68942;SDS011;60852;52.190;4.422;2023-05-10T06:33:09;4.77;;;4.77;;
68942;SDS011;60852;52.190;4.422;2023-05-10T06:35:35;5.18;;;5.18;;
68942;SDS011;60852;52.190;4.422;2023-05-10T06:38:01;5.22;;;5.22;;
68942;SDS011;60852;52.190;4.422;2023-05-10T06:40:27;5.88;;;5.88;;
68942;SDS011;60852;52.190;4.422;2023-05-10T06:42:52;5.90;;;5.90;;
68942;SDS011;60852;52.190;4.422;2023-05-10T06:45:18;5.97;;;5.97;;
68942;SDS011;60852;52.190;4.422;2023-05-10T06:47:43;6.66;;;6.66;;
68942;SDS011;60852;52.190;4.422;2023-05-10T06:50:09;6.35;;;6.34;;
68942;SDS011;60852;52.190;4.422;2023-05-10T06:52:36;6.56;;;6.50;;
68942;SDS011;60852;52.190;4.422;2023-05-10T06:55:03;5.87;;;5.85;;
68942;SDS011;60852;52.190;4.422;2023-05-10T06:57:29;5.86;;;5.84;;
68942;SDS011;60852;52.190;4.422;2023-05-10T06:59:55;6.14;;;6.12;;
68942;SDS011;60852;52.190;4.422;2023-05-10T07:02:21;5.73;;;5.73;;
68942;SDS011;60852;52.190;4.422;2023-05-10T07:04:47;6.43;;;6.43;;
68942;SDS011;60852;52.190;4.422;2023-05-10T07:07:14;5.94;;;5.94;;
68942;SDS011;60852;52.190;4.422;2023-05-10T07:09:40;5.69;;;5.69;;
68942;SDS011;60852;52.190;4.422;2023-05-10T07:12:05;5.70;;;5.70;;
68942;SDS011;60852;52.190;4.422;2023-05-10T07:14:31;5.06;;;5.04;;
68942;SDS011;60852;52.190;4.422;2023-05-10T07:16:56;4.67;;;4.67;;
68942;SDS011;60852;52.190;4.422;2023-05-10T07:19:22;5.28;;;5.27;;
68942;SDS011;60852;52.190;4.422;2023-05-10T07:21:48;5.05;;;5.05;;
68942;SDS011;60852;52.190;4.422;2023-05-10T07:24:13;5.29;;;5.29;;
68942;SDS011;60852;52.190;4.422;2023-05-10T07:26:39;4.61;;;4.60;;
68942;SDS011;60852;52.190;4.422;2023-05-10T07:29:04;4.54;;;4.54;;
68942;SDS011;60852;52.190;4.422;2023-05-10T07:31:29;3.87;;;3.87;;
68942;SDS011;60852;52.190;4.422;2023-05-10T07:33:55;3.58;;;3.58;;
68942;SDS011;60852;52.190;4.422;2023-05-10T07:36:20;3.39;;;3.39;;
68942;SDS011;60852;52.190;4.422;2023-05-10T07:38:46;3.36;;;3.36;;
68942;SDS011;60852;52.190;4.422;2023-05-10T07:41:11;3.52;;;3.52;;
68942;SDS011;60852;52.190;4.422;2023-05-10T07:43:37;4.07;;;4.07;;
68942;SDS011;60852;52.190;4.422;2023-05-10T07:46:03;3.44;;;3.44;;
68942;SDS011;60852;52.190;4.422;2023-05-10T07:48:29;3.68;;;3.68;;
68942;SDS011;60852;52.190;4.422;2023-05-10T07:50:54;3.50;;;3.50;;
68942;SDS011;60852;52.190;4.422;2023-05-10T07:53:20;3.37;;;3.37;;
68942;SDS011;60852;52.190;4.422;2023-05-10T07:55:52;2.80;;;2.80;;
68942;SDS011;60852;52.190;4.422;2023-05-10T07:58:22;3.01;;;3.01;;
68942;SDS011;60852;52.190;4.422;2023-05-10T08:00:47;3.30;;;3.30;;
68942;SDS011;60852;52.190;4.422;2023-05-10T08:03:14;3.27;;;3.27;;
68942;SDS011;60852;52.190;4.422;2023-05-10T08:05:39;2.95;;;2.95;;
68942;SDS011;60852;52.190;4.422;2023-05-10T08:08:05;2.97;;;2.97;;
68942;SDS011;60852;52.190;4.422;2023-05-10T08:10:31;3.27;;;3.27;;
68942;SDS011;60852;52.190;4.422;2023-05-10T08:12:56;3.04;;;3.04;;
68942;SDS011;60852;52.190;4.422;2023-05-10T08:15:23;2.95;;;2.95;;
68942;SDS011;60852;52.190;4.422;2023-05-10T08:17:50;3.19;;;3.19;;
68942;SDS011;60852;52.190;4.422;2023-05-10T08:20:16;2.80;;;2.80;;
68942;SDS011;60852;52.190;4.422;2023-05-10T08:22:44;2.52;;;2.52;;
68942;SDS011;60852;52.190;4.422;2023-05-10T08:25:10;2.58;;;2.58;;
68942;SDS011;60852;52.190;4.422;2023-05-10T08:27:36;3.19;;;3.19;;
68942;SDS011;60852;52.190;4.422;2023-05-10T08:30:01;2.93;;;2.93;;
68942;SDS011;60852;52.190;4.422;2023-05-10T08:32:27;3.22;;;3.21;;
68942;SDS011;60852;52.190;4.422;2023-05-10T08:34:52;3.60;;;3.57;;
68942;SDS011;60852;52.190;4.422;2023-05-10T08:37:18;2.97;;;2.97;;
68942;SDS011;60852;52.190;4.422;2023-05-10T08:39:43;3.49;;;3.49;;
68942;SDS011;60852;52.190;4.422;2023-05-10T08:42:10;4.22;;;4.22;;
68942;SDS011;60852;52.190;4.422;2023-05-10T08:44:40;4.03;;;4.03;;
68942;SDS011;60852;52.190;4.422;2023-05-10T08:47:07;4.27;;;4.27;;
68942;SDS011;60852;52.190;4.422;2023-05-10T08:49:35;4.27;;;4.27;;
68942;SDS011;60852;52.190;4.422;2023-05-10T08:52:03;4.82;;;4.82;;
68942;SDS011;60852;52.190;4.422;2023-05-10T08:54:31;5.10;;;5.10;;
68942;SDS011;60852;52.190;4.422;2023-05-10T08:56:58;5.00;;;5.00;;
68942;SDS011;60852;52.190;4.422;2023-05-10T08:59:23;5.86;;;5.86;;
68942;SDS011;60852;52.190;4.422;2023-05-10T09:01:49;6.59;;;6.59;;
68942;SDS011;60852;52.190;4.422;2023-05-10T09:04:18;7.19;;;7.18;;
68942;SDS011;60852;52.190;4.422;2023-05-10T09:06:45;8.26;;;8.21;;
68942;SDS011;60852;52.190;4.422;2023-05-10T09:09:10;9.58;;;9.49;;
68942;SDS011;60852;52.190;4.422;2023-05-10T09:11:37;10.50;;;10.42;;
68942;SDS011;60852;52.190;4.422;2023-05-10T09:14:02;12.17;;;11.93;;
68942;SDS011;60852;52.190;4.422;2023-05-10T09:16:28;11.60;;;11.37;;
68942;SDS011;60852;52.190;4.422;2023-05-10T09:18:54;11.57;;;11.41;;
68942;SDS011;60852;52.190;4.422;2023-05-10T09:21:19;11.66;;;11.53;;
68942;SDS011;60852;52.190;4.422;2023-05-10T09:23:45;12.63;;;12.45;;
68942;SDS011;60852;52.190;4.422;2023-05-10T09:26:11;11.77;;;11.52;;
68942;SDS011;60852;52.190;4.422;2023-05-10T09:28:57;11.58;;;11.40;;
68942;SDS011;60852;52.190;4.422;2023-05-10T09:31:23;12.10;;;11.83;;
68942;SDS011;60852;52.190;4.422;2023-05-10T09:34:08;11.70;;;11.55;;
68942;SDS011;60852;52.190;4.422;2023-05-10T09:36:34;11.72;;;11.50;;
68942;SDS011;60852;52.190;4.422;2023-05-10T09:38:59;12.72;;;12.53;;
68942;SDS011;60852;52.190;4.422;2023-05-10T09:41:25;12.09;;;11.78;;
68942;SDS011;60852;52.190;4.422;2023-05-10T09:43:54;13.16;;;12.91;;
68942;SDS011;60852;52.190;4.422;2023-05-10T09:46:21;11.65;;;11.43;;
68942;SDS011;60852;52.190;4.422;2023-05-10T09:48:47;11.39;;;11.02;;
68942;SDS011;60852;52.190;4.422;2023-05-10T09:51:24;12.72;;;12.44;;
68942;SDS011;60852;52.190;4.422;2023-05-10T09:56:37;13.65;;;13.17;;
68942;SDS011;60852;52.190;4.422;2023-05-10T09:59:06;13.60;;;13.22;;
68942;SDS011;60852;52.190;4.422;2023-05-10T10:01:33;13.83;;;13.33;;
68942;SDS011;60852;52.190;4.422;2023-05-10T10:04:02;14.78;;;14.02;;
68942;SDS011;60852;52.190;4.422;2023-05-10T10:06:31;14.93;;;14.08;;
68942;SDS011;60852;52.190;4.422;2023-05-10T10:09:00;14.68;;;14.10;;
68942;SDS011;60852;52.190;4.422;2023-05-10T10:11:26;14.60;;;13.84;;
68942;SDS011;60852;52.190;4.422;2023-05-10T10:13:52;15.20;;;14.48;;
68942;SDS011;60852;52.190;4.422;2023-05-10T10:16:18;16.03;;;15.11;;
68942;SDS011;60852;52.190;4.422;2023-05-10T10:18:45;15.85;;;14.98;;
68942;SDS011;60852;52.190;4.422;2023-05-10T10:21:12;15.65;;;14.80;;
68942;SDS011;60852;52.190;4.422;2023-05-10T10:23:40;16.75;;;15.35;;
68942;SDS011;60852;52.190;4.422;2023-05-10T10:26:05;17.52;;;15.95;;
68942;SDS011;60852;52.190;4.422;2023-05-10T10:34:00;16.55;;;15.10;;
68942;SDS011;60852;52.190;4.422;2023-05-10T10:36:32;14.39;;;13.70;;
68942;SDS011;60852;52.190;4.422;2023-05-10T10:38:59;13.38;;;12.71;;
68942;SDS011;60852;52.190;4.422;2023-05-10T10:41:33;12.45;;;11.80;;
68942;SDS011;60852;52.190;4.422;2023-05-10T10:46:58;11.09;;;10.76;;
68942;SDS011;60852;52.190;4.422;2023-05-10T10:49:31;10.81;;;10.45;;
68942;SDS011;60852;52.190;4.422;2023-05-10T10:57:18;7.84;;;7.81;;
68942;SDS011;60852;52.190;4.422;2023-05-10T10:59:48;7.04;;;7.04;;
68942;SDS011;60852;52.190;4.422;2023-05-10T11:07:56;6.44;;;6.39;;
68942;SDS011;60852;52.190;4.422;2023-05-10T11:10:23;6.11;;;6.10;;
68942;SDS011;60852;52.190;4.422;2023-05-10T11:12:51;6.71;;;6.71;;
68942;SDS011;60852;52.190;4.422;2023-05-10T11:15:18;7.00;;;6.99;;
68942;SDS011;60852;52.190;4.422;2023-05-10T11:17:45;7.34;;;7.34;;
68942;SDS011;60852;52.190;4.422;2023-05-10T11:20:13;8.31;;;8.31;;
68942;SDS011;60852;52.190;4.422;2023-05-10T11:22:52;8.11;;;8.11;;
68942;SDS011;60852;52.190;4.422;2023-05-10T11:25:19;7.78;;;7.78;;
68942;SDS011;60852;52.190;4.422;2023-05-10T11:27:46;7.81;;;7.80;;
68942;SDS011;60852;52.190;4.422;2023-05-10T11:30:13;7.82;;;7.82;;
68942;SDS011;60852;52.190;4.422;2023-05-10T11:32:40;8.56;;;8.56;;
68942;SDS011;60852;52.190;4.422;2023-05-10T11:35:06;8.50;;;8.43;;
68942;SDS011;60852;52.190;4.422;2023-05-10T11:37:33;7.89;;;7.85;;
68942;SDS011;60852;52.190;4.422;2023-05-10T11:39:59;7.60;;;7.60;;
68942;SDS011;60852;52.190;4.422;2023-05-10T11:42:25;6.80;;;6.80;;
68942;SDS011;60852;52.190;4.422;2023-05-10T11:44:50;7.22;;;7.21;;
68942;SDS011;60852;52.190;4.422;2023-05-10T11:47:16;7.34;;;7.34;;
68942;SDS011;60852;52.190;4.422;2023-05-10T11:49:44;7.54;;;7.45;;
68942;SDS011;60852;52.190;4.422;2023-05-10T11:52:11;7.25;;;7.08;;
68942;SDS011;60852;52.190;4.422;2023-05-10T11:54:36;7.08;;;7.01;;
68942;SDS011;60852;52.190;4.422;2023-05-10T11:57:02;7.50;;;7.43;;
68942;SDS011;60852;52.190;4.422;2023-05-10T11:59:28;8.45;;;8.35;;
68942;SDS011;60852;52.190;4.422;2023-05-10T12:01:54;9.00;;;8.84;;
68942;SDS011;60852;52.190;4.422;2023-05-10T12:04:20;9.29;;;9.17;;
68942;SDS011;60852;52.190;4.422;2023-05-10T12:06:46;8.99;;;8.98;;
68942;SDS011;60852;52.190;4.422;2023-05-10T12:09:12;9.12;;;9.02;;
68942;SDS011;60852;52.190;4.422;2023-05-10T12:11:40;8.49;;;8.36;;
68942;SDS011;60852;52.190;4.422;2023-05-10T12:14:06;9.07;;;8.88;;
68942;SDS011;60852;52.190;4.422;2023-05-10T12:16:31;9.31;;;9.14;;
68942;SDS011;60852;52.190;4.422;2023-05-10T12:18:58;9.79;;;9.58;;
68942;SDS011;60852;52.190;4.422;2023-05-10T12:21:25;9.99;;;9.84;;
68942;SDS011;60852;52.190;4.422;2023-05-10T12:23:54;9.54;;;9.34;;
68942;SDS011;60852;52.190;4.422;2023-05-10T12:26:24;9.77;;;9.58;;
68942;SDS011;60852;52.190;4.422;2023-05-10T12:28:52;9.31;;;9.23;;
68942;SDS011;60852;52.190;4.422;2023-05-10T12:31:18;10.14;;;10.01;;
68942;SDS011;60852;52.190;4.422;2023-05-10T12:33:44;9.89;;;9.76;;
68942;SDS011;60852;52.190;4.422;2023-05-10T12:36:12;10.15;;;10.08;;
68942;SDS011;60852;52.190;4.422;2023-05-10T12:38:40;9.81;;;9.77;;
68942;SDS011;60852;52.190;4.422;2023-05-10T12:41:14;10.60;;;10.57;;
68942;SDS011;60852;52.190;4.422;2023-05-10T12:43:41;10.80;;;10.75;;
68942;SDS011;60852;52.190;4.422;2023-05-10T12:46:13;12.29;;;12.05;;
68942;SDS011;60852;52.190;4.422;2023-05-10T12:48:42;13.09;;;12.77;;
68942;SDS011;60852;52.190;4.422;2023-05-10T12:51:08;12.64;;;12.36;;
68942;SDS011;60852;52.190;4.422;2023-05-10T12:53:37;13.30;;;13.04;;
68942;SDS011;60852;52.190;4.422;2023-05-10T12:56:03;13.35;;;13.11;;
68942;SDS011;60852;52.190;4.422;2023-05-10T12:58:29;12.41;;;12.23;;
68942;SDS011;60852;52.190;4.422;2023-05-10T13:00:54;12.47;;;12.26;;
68942;SDS011;60852;52.190;4.422;2023-05-10T13:03:21;13.20;;;12.89;;
68942;SDS011;60852;52.190;4.422;2023-05-10T13:05:47;12.63;;;12.28;;
68942;SDS011;60852;52.190;4.422;2023-05-10T13:08:12;12.28;;;12.10;;
68942;SDS011;60852;52.190;4.422;2023-05-10T13:10:38;12.16;;;12.01;;
68942;SDS011;60852;52.190;4.422;2023-05-10T13:13:04;12.82;;;12.59;;
68942;SDS011;60852;52.190;4.422;2023-05-10T13:15:30;12.65;;;12.45;;
68942;SDS011;60852;52.190;4.422;2023-05-10T13:17:55;12.75;;;12.58;;
68942;SDS011;60852;52.190;4.422;2023-05-10T13:20:21;12.60;;;12.41;;
68942;SDS011;60852;52.190;4.422;2023-05-10T13:22:46;12.00;;;11.81;;
68942;SDS011;60852;52.190;4.422;2023-05-10T13:25:12;12.12;;;11.87;;
68942;SDS011;60852;52.190;4.422;2023-05-10T13:27:41;13.16;;;12.79;;
68942;SDS011;60852;52.190;4.422;2023-05-10T13:30:07;13.77;;;13.35;;
68942;SDS011;60852;52.190;4.422;2023-05-10T13:32:33;12.89;;;12.41;;
68942;SDS011;60852;52.190;4.422;2023-05-10T13:34:59;13.48;;;12.99;;
68942;SDS011;60852;52.190;4.422;2023-05-10T13:37:25;13.04;;;12.81;;
68942;SDS011;60852;52.190;4.422;2023-05-10T13:39:50;12.92;;;12.65;;
68942;SDS011;60852;52.190;4.422;2023-05-10T13:42:17;12.58;;;12.20;;
68942;SDS011;60852;52.190;4.422;2023-05-10T13:44:42;13.18;;;12.69;;
68942;SDS011;60852;52.190;4.422;2023-05-10T13:47:08;13.39;;;12.88;;
68942;SDS011;60852;52.190;4.422;2023-05-10T13:49:33;13.12;;;12.52;;
68942;SDS011;60852;52.190;4.422;2023-05-10T13:51:59;13.41;;;12.76;;
68942;SDS011;60852;52.190;4.422;2023-05-10T13:54:31;13.20;;;12.83;;
68942;SDS011;60852;52.190;4.422;2023-05-10T13:57:03;13.11;;;12.65;;
68942;SDS011;60852;52.190;4.422;2023-05-10T13:59:29;12.47;;;12.10;;
68942;SDS011;60852;52.190;4.422;2023-05-10T14:01:59;12.58;;;12.25;;
68942;SDS011;60852;52.190;4.422;2023-05-10T14:04:27;12.19;;;12.02;;
68942;SDS011;60852;52.190;4.422;2023-05-10T14:06:53;11.92;;;11.67;;
68942;SDS011;60852;52.190;4.422;2023-05-10T14:09:19;12.22;;;11.93;;
68942;SDS011;60852;52.190;4.422;2023-05-10T14:11:45;13.84;;;13.54;;
68942;SDS011;60852;52.190;4.422;2023-05-10T14:14:10;13.39;;;13.13;;
68942;SDS011;60852;52.190;4.422;2023-05-10T14:16:36;13.94;;;13.58;;
68942;SDS011;60852;52.190;4.422;2023-05-10T14:19:02;12.72;;;12.47;;
68942;SDS011;60852;52.190;4.422;2023-05-10T14:21:28;12.40;;;12.18;;
68942;SDS011;60852;52.190;4.422;2023-05-10T14:23:56;12.42;;;12.02;;
68942;SDS011;60852;52.190;4.422;2023-05-10T14:26:22;12.49;;;12.16;;
68942;SDS011;60852;52.190;4.422;2023-05-10T14:28:47;12.58;;;12.26;;
68942;SDS011;60852;52.190;4.422;2023-05-10T14:31:13;12.55;;;12.35;;
68942;SDS011;60852;52.190;4.422;2023-05-10T14:33:39;13.38;;;13.14;;
68942;SDS011;60852;52.190;4.422;2023-05-10T14:36:06;12.62;;;12.44;;
68942;SDS011;60852;52.190;4.422;2023-05-10T14:38:32;13.23;;;13.07;;
68942;SDS011;60852;52.190;4.422;2023-05-10T14:40:57;13.37;;;13.11;;
68942;SDS011;60852;52.190;4.422;2023-05-10T14:43:23;14.65;;;14.23;;
68942;SDS011;60852;52.190;4.422;2023-05-10T14:45:48;14.78;;;14.41;;
68942;SDS011;60852;52.190;4.422;2023-05-10T14:48:14;16.45;;;15.82;;
68942;SDS011;60852;52.190;4.422;2023-05-10T14:50:42;17.09;;;16.05;;
68942;SDS011;60852;52.190;4.422;2023-05-10T14:53:08;16.98;;;16.13;;
68942;SDS011;60852;52.190;4.422;2023-05-10T14:55:33;15.76;;;15.09;;
68942;SDS011;60852;52.190;4.422;2023-05-10T14:58:01;16.68;;;16.02;;
68942;SDS011;60852;52.190;4.422;2023-05-10T15:00:28;16.12;;;15.42;;
68942;SDS011;60852;52.190;4.422;2023-05-10T15:02:54;16.21;;;15.38;;
68942;SDS011;60852;52.190;4.422;2023-05-10T15:05:19;17.17;;;16.16;;
68942;SDS011;60852;52.190;4.422;2023-05-10T15:07:45;17.33;;;16.47;;